sensor_id;sensor_type;location;lat;lon;timestamp;P1;durP1;ratioP1;P2;durP2;ratioP2
71606;SDS011;60641;53.556;9.914;2024-02-16T00:00:25;9.10;;;3.00;;
71606;SDS011;60641;53.556;9.914;2024-02-16T00:03:12;9.30;;;2.80;;
71606;SDS011;60641;53.556;9.914;2024-02-16T00:05:38;8.60;;;3.00;;
71606;SDS011;60641;53.556;9.914;2024-02-16T00:08:05;8.50;;;2.70;;
71606;SDS011;60641;53.556;9.914;2024-02-16T00:10:31;7.00;;;2.60;;
71606;SDS011;60641;53.556;9.914;2024-02-16T00:12:58;8.20;;;2.70;;
71606;SDS011;60641;53.556;9.914;2024-02-16T00:15:25;6.50;;;2.70;;
71606;SDS011;60641;53.556;9.914;2024-02-16T00:17:51;6.20;;;2.60;;
71606;SDS011;60641;53.556;9.914;2024-02-16T00:20:18;8.20;;;2.70;;
71606;SDS011;60641;53.556;9.914;2024-02-16T00:22:47;7.50;;;2.70;;
71606;SDS011;60641;53.556;9.914;2024-02-16T00:25:14;10.00;;;2.80;;
71606;SDS011;60641;53.556;9.914;2024-02-16T00:27:41;9.00;;;3.00;;
71606;SDS011;60641;53.556;9.914;2024-02-16T00:30:08;8.80;;;2.60;;
71606;SDS011;60641;53.556;9.914;2024-02-16T00:32:36;8.20;;;2.60;;
71606;SDS011;60641;53.556;9.914;2024-02-16T00:35:03;8.50;;;2.40;;
71606;SDS011;60641;53.556;9.914;2024-02-16T00:37:30;8.10;;;2.50;;
71606;SDS011;60641;53.556;9.914;2024-02-16T00:39:56;8.00;;;2.80;;
71606;SDS011;60641;53.556;9.914;2024-02-16T00:42:23;6.80;;;2.50;;
71606;SDS011;60641;53.556;9.914;2024-02-16T00:44:49;7.30;;;2.50;;
71606;SDS011;60641;53.556;9.914;2024-02-16T00:47:16;8.50;;;2.50;;
71606;SDS011;60641;53.556;9.914;2024-02-16T00:49:43;9.10;;;2.80;;
71606;SDS011;60641;53.556;9.914;2024-02-16T00:52:09;7.80;;;2.50;;
71606;SDS011;60641;53.556;9.914;2024-02-16T00:54:39;7.70;;;2.60;;
71606;SDS011;60641;53.556;9.914;2024-02-16T00:57:05;8.80;;;2.40;;
71606;SDS011;60641;53.556;9.914;2024-02-16T00:59:32;9.30;;;2.30;;
71606;SDS011;60641;53.556;9.914;2024-02-16T01:01:58;9.30;;;2.40;;
71606;SDS011;60641;53.556;9.914;2024-02-16T01:04:25;7.00;;;2.20;;
71606;SDS011;60641;53.556;9.914;2024-02-16T01:06:52;8.50;;;2.30;;
71606;SDS011;60641;53.556;9.914;2024-02-16T01:09:18;7.70;;;2.50;;
71606;SDS011;60641;53.556;9.914;2024-02-16T01:11:45;7.70;;;2.50;;
71606;SDS011;60641;53.556;9.914;2024-02-16T01:14:11;6.50;;;2.50;;
71606;SDS011;60641;53.556;9.914;2024-02-16T01:16:38;6.50;;;2.20;;
71606;SDS011;60641;53.556;9.914;2024-02-16T01:19:05;7.50;;;2.20;;
71606;SDS011;60641;53.556;9.914;2024-02-16T01:21:33;7.70;;;2.40;;
71606;SDS011;60641;53.556;9.914;2024-02-16T01:23:59;7.30;;;2.10;;
71606;SDS011;60641;53.556;9.914;2024-02-16T01:26:27;7.00;;;2.20;;
71606;SDS011;60641;53.556;9.914;2024-02-16T01:28:54;9.80;;;2.20;;
71606;SDS011;60641;53.556;9.914;2024-02-16T01:31:21;6.90;;;2.00;;
71606;SDS011;60641;53.556;9.914;2024-02-16T01:33:47;11.50;;;2.00;;
71606;SDS011;60641;53.556;9.914;2024-02-16T01:36:13;5.60;;;2.00;;
71606;SDS011;60641;53.556;9.914;2024-02-16T01:38:40;5.50;;;1.80;;
71606;SDS011;60641;53.556;9.914;2024-02-16T01:41:06;6.60;;;1.90;;
71606;SDS011;60641;53.556;9.914;2024-02-16T01:43:35;6.30;;;1.70;;
71606;SDS011;60641;53.556;9.914;2024-02-16T01:46:01;5.80;;;1.80;;
71606;SDS011;60641;53.556;9.914;2024-02-16T01:48:28;6.80;;;1.90;;
71606;SDS011;60641;53.556;9.914;2024-02-16T01:50:55;7.40;;;2.10;;
71606;SDS011;60641;53.556;9.914;2024-02-16T01:53:22;6.10;;;1.80;;
71606;SDS011;60641;53.556;9.914;2024-02-16T01:55:49;7.40;;;2.10;;
71606;SDS011;60641;53.556;9.914;2024-02-16T01:58:15;7.20;;;2.00;;
71606;SDS011;60641;53.556;9.914;2024-02-16T02:00:42;7.60;;;2.10;;
71606;SDS011;60641;53.556;9.914;2024-02-16T02:03:08;8.20;;;2.10;;
71606;SDS011;60641;53.556;9.914;2024-02-16T02:05:43;7.90;;;2.00;;
71606;SDS011;60641;53.556;9.914;2024-02-16T02:08:12;6.30;;;1.90;;
71606;SDS011;60641;53.556;9.914;2024-02-16T02:10:39;7.10;;;2.00;;
71606;SDS011;60641;53.556;9.914;2024-02-16T02:13:05;7.60;;;2.20;;
71606;SDS011;60641;53.556;9.914;2024-02-16T02:15:31;8.70;;;2.30;;
71606;SDS011;60641;53.556;9.914;2024-02-16T02:17:58;6.90;;;2.00;;
71606;SDS011;60641;53.556;9.914;2024-02-16T02:20:25;6.20;;;1.90;;
71606;SDS011;60641;53.556;9.914;2024-02-16T02:22:52;7.50;;;2.20;;
71606;SDS011;60641;53.556;9.914;2024-02-16T02:25:19;7.40;;;1.90;;
71606;SDS011;60641;53.556;9.914;2024-02-16T02:27:46;6.40;;;2.40;;
71606;SDS011;60641;53.556;9.914;2024-02-16T02:30:12;7.20;;;2.20;;
71606;SDS011;60641;53.556;9.914;2024-02-16T02:32:39;7.70;;;1.90;;
71606;SDS011;60641;53.556;9.914;2024-02-16T02:35:06;9.40;;;2.20;;
71606;SDS011;60641;53.556;9.914;2024-02-16T02:37:34;13.90;;;2.50;;
71606;SDS011;60641;53.556;9.914;2024-02-16T02:40:01;5.60;;;1.90;;
71606;SDS011;60641;53.556;9.914;2024-02-16T02:42:32;6.10;;;2.00;;
71606;SDS011;60641;53.556;9.914;2024-02-16T02:44:58;8.90;;;2.00;;
71606;SDS011;60641;53.556;9.914;2024-02-16T02:47:25;7.00;;;1.90;;
71606;SDS011;60641;53.556;9.914;2024-02-16T02:49:51;6.70;;;1.80;;
71606;SDS011;60641;53.556;9.914;2024-02-16T02:52:19;7.70;;;1.80;;
71606;SDS011;60641;53.556;9.914;2024-02-16T02:54:47;8.90;;;2.00;;
71606;SDS011;60641;53.556;9.914;2024-02-16T02:57:13;6.80;;;2.00;;
71606;SDS011;60641;53.556;9.914;2024-02-16T02:59:40;5.40;;;1.80;;
71606;SDS011;60641;53.556;9.914;2024-02-16T03:02:06;7.20;;;2.00;;
71606;SDS011;60641;53.556;9.914;2024-02-16T03:04:33;7.60;;;1.90;;
71606;SDS011;60641;53.556;9.914;2024-02-16T03:07:01;6.70;;;1.80;;
71606;SDS011;60641;53.556;9.914;2024-02-16T03:09:27;5.80;;;1.60;;
71606;SDS011;60641;53.556;9.914;2024-02-16T03:11:54;7.30;;;1.80;;
71606;SDS011;60641;53.556;9.914;2024-02-16T03:14:20;7.40;;;2.00;;
71606;SDS011;60641;53.556;9.914;2024-02-16T03:16:47;7.00;;;1.70;;
71606;SDS011;60641;53.556;9.914;2024-02-16T03:19:14;6.00;;;2.00;;
71606;SDS011;60641;53.556;9.914;2024-02-16T03:21:40;6.40;;;1.70;;
71606;SDS011;60641;53.556;9.914;2024-02-16T03:24:07;6.20;;;1.80;;
71606;SDS011;60641;53.556;9.914;2024-02-16T03:26:33;6.80;;;2.20;;
71606;SDS011;60641;53.556;9.914;2024-02-16T03:29:00;6.70;;;2.10;;
71606;SDS011;60641;53.556;9.914;2024-02-16T03:31:26;6.10;;;2.00;;
71606;SDS011;60641;53.556;9.914;2024-02-16T03:33:54;6.70;;;1.90;;
71606;SDS011;60641;53.556;9.914;2024-02-16T03:36:21;6.30;;;1.80;;
71606;SDS011;60641;53.556;9.914;2024-02-16T03:38:48;6.70;;;1.80;;
71606;SDS011;60641;53.556;9.914;2024-02-16T03:41:18;7.10;;;2.10;;
71606;SDS011;60641;53.556;9.914;2024-02-16T03:43:45;6.70;;;1.80;;
71606;SDS011;60641;53.556;9.914;2024-02-16T03:46:12;7.00;;;2.00;;
71606;SDS011;60641;53.556;9.914;2024-02-16T03:48:39;8.30;;;2.20;;
71606;SDS011;60641;53.556;9.914;2024-02-16T03:51:08;5.00;;;2.00;;
71606;SDS011;60641;53.556;9.914;2024-02-16T03:53:35;6.90;;;2.00;;
71606;SDS011;60641;53.556;9.914;2024-02-16T03:56:01;5.20;;;1.60;;
71606;SDS011;60641;53.556;9.914;2024-02-16T03:58:28;5.80;;;1.60;;
71606;SDS011;60641;53.556;9.914;2024-02-16T04:00:54;7.10;;;1.80;;
71606;SDS011;60641;53.556;9.914;2024-02-16T04:03:21;6.80;;;1.70;;
71606;SDS011;60641;53.556;9.914;2024-02-16T04:05:47;6.50;;;1.50;;
71606;SDS011;60641;53.556;9.914;2024-02-16T04:08:14;6.80;;;1.70;;
71606;SDS011;60641;53.556;9.914;2024-02-16T04:10:40;5.70;;;1.70;;
71606;SDS011;60641;53.556;9.914;2024-02-16T04:13:07;7.90;;;1.50;;
71606;SDS011;60641;53.556;9.914;2024-02-16T04:15:33;5.00;;;1.40;;
71606;SDS011;60641;53.556;9.914;2024-02-16T04:18:00;5.60;;;1.40;;
71606;SDS011;60641;53.556;9.914;2024-02-16T04:20:26;5.50;;;1.40;;
71606;SDS011;60641;53.556;9.914;2024-02-16T04:22:52;6.90;;;1.70;;
71606;SDS011;60641;53.556;9.914;2024-02-16T04:25:19;5.10;;;1.50;;
71606;SDS011;60641;53.556;9.914;2024-02-16T04:27:45;4.10;;;1.30;;
71606;SDS011;60641;53.556;9.914;2024-02-16T04:30:12;7.80;;;1.40;;
71606;SDS011;60641;53.556;9.914;2024-02-16T04:32:39;5.80;;;1.50;;
71606;SDS011;60641;53.556;9.914;2024-02-16T04:35:05;6.20;;;1.80;;
71606;SDS011;60641;53.556;9.914;2024-02-16T04:37:32;6.10;;;1.70;;
71606;SDS011;60641;53.556;9.914;2024-02-16T04:39:58;6.20;;;1.80;;
71606;SDS011;60641;53.556;9.914;2024-02-16T04:42:25;6.30;;;1.60;;
71606;SDS011;60641;53.556;9.914;2024-02-16T04:44:52;5.80;;;1.90;;
71606;SDS011;60641;53.556;9.914;2024-02-16T04:47:18;9.90;;;2.00;;
71606;SDS011;60641;53.556;9.914;2024-02-16T04:49:44;7.00;;;2.10;;
71606;SDS011;60641;53.556;9.914;2024-02-16T04:52:11;5.70;;;1.70;;
71606;SDS011;60641;53.556;9.914;2024-02-16T04:54:38;8.60;;;1.80;;
71606;SDS011;60641;53.556;9.914;2024-02-16T04:57:06;7.40;;;1.80;;
71606;SDS011;60641;53.556;9.914;2024-02-16T04:59:33;6.40;;;2.00;;
71606;SDS011;60641;53.556;9.914;2024-02-16T05:02:00;6.20;;;1.80;;
71606;SDS011;60641;53.556;9.914;2024-02-16T05:04:26;8.60;;;2.30;;
71606;SDS011;60641;53.556;9.914;2024-02-16T05:06:53;7.60;;;2.00;;
71606;SDS011;60641;53.556;9.914;2024-02-16T05:09:23;7.00;;;2.10;;
71606;SDS011;60641;53.556;9.914;2024-02-16T05:11:52;6.80;;;2.30;;
71606;SDS011;60641;53.556;9.914;2024-02-16T05:14:19;6.40;;;2.20;;
71606;SDS011;60641;53.556;9.914;2024-02-16T05:16:45;7.20;;;2.10;;
71606;SDS011;60641;53.556;9.914;2024-02-16T05:19:12;7.10;;;2.10;;
71606;SDS011;60641;53.556;9.914;2024-02-16T05:21:39;7.00;;;2.20;;
71606;SDS011;60641;53.556;9.914;2024-02-16T05:24:05;7.70;;;2.30;;
71606;SDS011;60641;53.556;9.914;2024-02-16T05:26:32;8.90;;;2.20;;
71606;SDS011;60641;53.556;9.914;2024-02-16T05:28:59;5.80;;;2.10;;
71606;SDS011;60641;53.556;9.914;2024-02-16T05:31:25;6.80;;;2.20;;
71606;SDS011;60641;53.556;9.914;2024-02-16T05:33:52;7.10;;;2.30;;
71606;SDS011;60641;53.556;9.914;2024-02-16T05:36:19;7.60;;;2.60;;
71606;SDS011;60641;53.556;9.914;2024-02-16T05:38:46;6.70;;;2.10;;
71606;SDS011;60641;53.556;9.914;2024-02-16T05:41:13;7.10;;;1.90;;
71606;SDS011;60641;53.556;9.914;2024-02-16T05:43:42;6.90;;;2.50;;
71606;SDS011;60641;53.556;9.914;2024-02-16T05:46:12;8.00;;;2.30;;
71606;SDS011;60641;53.556;9.914;2024-02-16T05:48:42;8.60;;;2.40;;
71606;SDS011;60641;53.556;9.914;2024-02-16T05:51:09;5.90;;;1.90;;
71606;SDS011;60641;53.556;9.914;2024-02-16T05:53:38;8.40;;;2.20;;
71606;SDS011;60641;53.556;9.914;2024-02-16T05:56:06;6.40;;;2.10;;
71606;SDS011;60641;53.556;9.914;2024-02-16T05:58:33;6.00;;;2.20;;
71606;SDS011;60641;53.556;9.914;2024-02-16T06:01:02;7.60;;;1.90;;
71606;SDS011;60641;53.556;9.914;2024-02-16T06:03:29;8.20;;;2.00;;
71606;SDS011;60641;53.556;9.914;2024-02-16T06:05:56;6.10;;;1.90;;
71606;SDS011;60641;53.556;9.914;2024-02-16T06:08:23;4.00;;;1.60;;
71606;SDS011;60641;53.556;9.914;2024-02-16T06:10:50;7.70;;;2.00;;
71606;SDS011;60641;53.556;9.914;2024-02-16T06:13:20;9.90;;;2.30;;
71606;SDS011;60641;53.556;9.914;2024-02-16T06:15:47;7.40;;;1.90;;
71606;SDS011;60641;53.556;9.914;2024-02-16T06:18:13;5.80;;;1.80;;
71606;SDS011;60641;53.556;9.914;2024-02-16T06:20:40;5.50;;;2.10;;
71606;SDS011;60641;53.556;9.914;2024-02-16T06:23:07;6.70;;;2.00;;
71606;SDS011;60641;53.556;9.914;2024-02-16T06:25:35;6.80;;;2.30;;
71606;SDS011;60641;53.556;9.914;2024-02-16T06:28:02;5.80;;;2.10;;
71606;SDS011;60641;53.556;9.914;2024-02-16T06:30:31;8.80;;;2.30;;
71606;SDS011;60641;53.556;9.914;2024-02-16T06:32:57;7.20;;;2.40;;
71606;SDS011;60641;53.556;9.914;2024-02-16T06:35:24;8.10;;;2.40;;
71606;SDS011;60641;53.556;9.914;2024-02-16T06:37:51;7.30;;;2.20;;
71606;SDS011;60641;53.556;9.914;2024-02-16T06:40:17;7.60;;;2.30;;
71606;SDS011;60641;53.556;9.914;2024-02-16T06:42:44;8.60;;;2.60;;
71606;SDS011;60641;53.556;9.914;2024-02-16T06:45:10;9.40;;;2.50;;
71606;SDS011;60641;53.556;9.914;2024-02-16T06:47:37;10.90;;;2.60;;
71606;SDS011;60641;53.556;9.914;2024-02-16T06:50:04;7.20;;;2.20;;
71606;SDS011;60641;53.556;9.914;2024-02-16T06:52:30;7.60;;;2.10;;
71606;SDS011;60641;53.556;9.914;2024-02-16T06:54:57;6.80;;;2.30;;
71606;SDS011;60641;53.556;9.914;2024-02-16T06:57:23;8.20;;;2.20;;
71606;SDS011;60641;53.556;9.914;2024-02-16T06:59:51;7.80;;;2.50;;
71606;SDS011;60641;53.556;9.914;2024-02-16T07:02:19;5.50;;;1.90;;
71606;SDS011;60641;53.556;9.914;2024-02-16T07:04:45;7.10;;;1.90;;
71606;SDS011;60641;53.556;9.914;2024-02-16T07:07:12;6.90;;;1.80;;
71606;SDS011;60641;53.556;9.914;2024-02-16T07:09:38;8.30;;;2.30;;
71606;SDS011;60641;53.556;9.914;2024-02-16T07:12:06;7.90;;;2.20;;
71606;SDS011;60641;53.556;9.914;2024-02-16T07:14:33;8.10;;;2.00;;
71606;SDS011;60641;53.556;9.914;2024-02-16T07:16:59;6.50;;;2.10;;
71606;SDS011;60641;53.556;9.914;2024-02-16T07:19:26;6.00;;;2.00;;
71606;SDS011;60641;53.556;9.914;2024-02-16T07:21:53;7.40;;;2.00;;
71606;SDS011;60641;53.556;9.914;2024-02-16T07:24:19;6.20;;;1.90;;
71606;SDS011;60641;53.556;9.914;2024-02-16T07:26:46;6.60;;;1.90;;
71606;SDS011;60641;53.556;9.914;2024-02-16T07:29:13;7.00;;;1.90;;
71606;SDS011;60641;53.556;9.914;2024-02-16T07:31:42;6.40;;;1.90;;
71606;SDS011;60641;53.556;9.914;2024-02-16T07:34:09;6.30;;;2.00;;
71606;SDS011;60641;53.556;9.914;2024-02-16T07:36:37;5.70;;;2.00;;
71606;SDS011;60641;53.556;9.914;2024-02-16T07:39:04;5.80;;;1.80;;
71606;SDS011;60641;53.556;9.914;2024-02-16T07:41:30;6.90;;;2.00;;
71606;SDS011;60641;53.556;9.914;2024-02-16T07:43:57;6.20;;;1.70;;
71606;SDS011;60641;53.556;9.914;2024-02-16T07:46:23;7.70;;;2.10;;
71606;SDS011;60641;53.556;9.914;2024-02-16T07:48:50;7.90;;;2.20;;
71606;SDS011;60641;53.556;9.914;2024-02-16T07:51:16;5.80;;;2.10;;
71606;SDS011;60641;53.556;9.914;2024-02-16T07:53:43;7.60;;;2.20;;
71606;SDS011;60641;53.556;9.914;2024-02-16T07:56:12;7.10;;;2.00;;
71606;SDS011;60641;53.556;9.914;2024-02-16T07:58:40;7.70;;;2.10;;
71606;SDS011;60641;53.556;9.914;2024-02-16T08:01:08;7.50;;;2.40;;
71606;SDS011;60641;53.556;9.914;2024-02-16T08:03:37;8.60;;;2.10;;
71606;SDS011;60641;53.556;9.914;2024-02-16T08:06:04;8.70;;;2.10;;
71606;SDS011;60641;53.556;9.914;2024-02-16T08:08:30;8.20;;;2.30;;
71606;SDS011;60641;53.556;9.914;2024-02-16T08:10:57;8.30;;;2.60;;
71606;SDS011;60641;53.556;9.914;2024-02-16T08:13:23;10.20;;;2.70;;
71606;SDS011;60641;53.556;9.914;2024-02-16T08:15:50;8.50;;;2.60;;
71606;SDS011;60641;53.556;9.914;2024-02-16T08:18:18;8.20;;;2.30;;
71606;SDS011;60641;53.556;9.914;2024-02-16T08:20:44;8.60;;;2.20;;
71606;SDS011;60641;53.556;9.914;2024-02-16T08:23:11;8.20;;;2.40;;
71606;SDS011;60641;53.556;9.914;2024-02-16T08:25:37;13.40;;;2.50;;
71606;SDS011;60641;53.556;9.914;2024-02-16T08:28:04;7.90;;;2.10;;
71606;SDS011;60641;53.556;9.914;2024-02-16T08:30:31;11.90;;;2.20;;
71606;SDS011;60641;53.556;9.914;2024-02-16T08:32:57;6.60;;;2.00;;
71606;SDS011;60641;53.556;9.914;2024-02-16T08:35:24;8.40;;;2.10;;
71606;SDS011;60641;53.556;9.914;2024-02-16T08:37:51;7.80;;;2.10;;
71606;SDS011;60641;53.556;9.914;2024-02-16T08:40:17;8.50;;;2.10;;
71606;SDS011;60641;53.556;9.914;2024-02-16T08:42:44;6.90;;;2.20;;
71606;SDS011;60641;53.556;9.914;2024-02-16T08:45:10;10.60;;;2.50;;
71606;SDS011;60641;53.556;9.914;2024-02-16T08:47:38;7.20;;;2.40;;
71606;SDS011;60641;53.556;9.914;2024-02-16T08:50:05;9.70;;;2.50;;
71606;SDS011;60641;53.556;9.914;2024-02-16T08:52:33;7.40;;;2.40;;
71606;SDS011;60641;53.556;9.914;2024-02-16T08:54:59;11.90;;;2.70;;
71606;SDS011;60641;53.556;9.914;2024-02-16T08:57:26;7.00;;;2.30;;
71606;SDS011;60641;53.556;9.914;2024-02-16T08:59:53;7.10;;;2.60;;
71606;SDS011;60641;53.556;9.914;2024-02-16T09:02:19;10.80;;;3.20;;
71606;SDS011;60641;53.556;9.914;2024-02-16T09:04:46;8.00;;;2.80;;
71606;SDS011;60641;53.556;9.914;2024-02-16T09:07:12;8.10;;;3.00;;
71606;SDS011;60641;53.556;9.914;2024-02-16T09:09:39;6.30;;;2.20;;
71606;SDS011;60641;53.556;9.914;2024-02-16T09:12:05;9.40;;;2.30;;
71606;SDS011;60641;53.556;9.914;2024-02-16T09:14:32;6.10;;;2.00;;
71606;SDS011;60641;53.556;9.914;2024-02-16T09:16:58;4.90;;;1.70;;
71606;SDS011;60641;53.556;9.914;2024-02-16T09:19:25;9.00;;;2.20;;
71606;SDS011;60641;53.556;9.914;2024-02-16T09:21:51;7.60;;;2.10;;
71606;SDS011;60641;53.556;9.914;2024-02-16T09:24:20;7.60;;;1.90;;
71606;SDS011;60641;53.556;9.914;2024-02-16T09:26:46;8.40;;;2.10;;
71606;SDS011;60641;53.556;9.914;2024-02-16T09:29:13;8.60;;;2.50;;
71606;SDS011;60641;53.556;9.914;2024-02-16T09:31:42;7.40;;;2.00;;
71606;SDS011;60641;53.556;9.914;2024-02-16T09:34:09;6.90;;;1.90;;
71606;SDS011;60641;53.556;9.914;2024-02-16T09:36:35;5.60;;;1.90;;
71606;SDS011;60641;53.556;9.914;2024-02-16T09:39:03;7.70;;;1.90;;
71606;SDS011;60641;53.556;9.914;2024-02-16T09:41:31;6.70;;;1.90;;
71606;SDS011;60641;53.556;9.914;2024-02-16T09:44:01;6.90;;;1.90;;
71606;SDS011;60641;53.556;9.914;2024-02-16T09:46:28;6.70;;;1.90;;
71606;SDS011;60641;53.556;9.914;2024-02-16T09:48:56;7.90;;;2.10;;
71606;SDS011;60641;53.556;9.914;2024-02-16T09:51:22;5.90;;;1.90;;
71606;SDS011;60641;53.556;9.914;2024-02-16T09:53:49;7.60;;;2.20;;
71606;SDS011;60641;53.556;9.914;2024-02-16T09:56:21;11.40;;;2.40;;
71606;SDS011;60641;53.556;9.914;2024-02-16T09:58:48;8.30;;;2.40;;
71606;SDS011;60641;53.556;9.914;2024-02-16T10:01:18;6.70;;;2.50;;
71606;SDS011;60641;53.556;9.914;2024-02-16T10:03:48;7.40;;;2.20;;
71606;SDS011;60641;53.556;9.914;2024-02-16T10:06:15;8.20;;;2.10;;
71606;SDS011;60641;53.556;9.914;2024-02-16T10:08:49;5.40;;;2.00;;
71606;SDS011;60641;53.556;9.914;2024-02-16T10:11:21;9.10;;;2.30;;
71606;SDS011;60641;53.556;9.914;2024-02-16T10:13:55;7.30;;;2.40;;
71606;SDS011;60641;53.556;9.914;2024-02-16T10:16:29;7.30;;;2.30;;
71606;SDS011;60641;53.556;9.914;2024-02-16T10:18:56;7.90;;;2.30;;
71606;SDS011;60641;53.556;9.914;2024-02-16T10:21:30;10.70;;;2.40;;
71606;SDS011;60641;53.556;9.914;2024-02-16T10:26:23;6.10;;;2.30;;
71606;SDS011;60641;53.556;9.914;2024-02-16T10:28:51;8.80;;;2.40;;
71606;SDS011;60641;53.556;9.914;2024-02-16T10:31:22;8.40;;;2.20;;
71606;SDS011;60641;53.556;9.914;2024-02-16T10:34:12;8.00;;;2.00;;
71606;SDS011;60641;53.556;9.914;2024-02-16T10:36:38;8.20;;;1.70;;
71606;SDS011;60641;53.556;9.914;2024-02-16T10:39:05;6.70;;;1.90;;
71606;SDS011;60641;53.556;9.914;2024-02-16T10:41:35;5.10;;;1.50;;
71606;SDS011;60641;53.556;9.914;2024-02-16T10:44:02;5.10;;;1.50;;
71606;SDS011;60641;53.556;9.914;2024-02-16T10:46:33;6.70;;;1.50;;
71606;SDS011;60641;53.556;9.914;2024-02-16T10:49:00;5.50;;;1.40;;
71606;SDS011;60641;53.556;9.914;2024-02-16T10:51:37;6.60;;;1.70;;
71606;SDS011;60641;53.556;9.914;2024-02-16T10:54:05;4.90;;;1.40;;
71606;SDS011;60641;53.556;9.914;2024-02-16T10:56:32;5.10;;;1.20;;
71606;SDS011;60641;53.556;9.914;2024-02-16T10:59:04;4.50;;;1.40;;
71606;SDS011;60641;53.556;9.914;2024-02-16T11:01:41;5.10;;;1.40;;
71606;SDS011;60641;53.556;9.914;2024-02-16T11:04:13;6.40;;;1.60;;
71606;SDS011;60641;53.556;9.914;2024-02-16T11:06:48;6.60;;;1.60;;
71606;SDS011;60641;53.556;9.914;2024-02-16T11:09:34;3.60;;;1.40;;
71606;SDS011;60641;53.556;9.914;2024-02-16T11:12:02;5.90;;;1.20;;
71606;SDS011;60641;53.556;9.914;2024-02-16T11:14:36;7.80;;;1.40;;
71606;SDS011;60641;53.556;9.914;2024-02-16T11:17:07;7.10;;;1.50;;
71606;SDS011;60641;53.556;9.914;2024-02-16T11:19:46;5.50;;;1.50;;
71606;SDS011;60641;53.556;9.914;2024-02-16T11:22:17;5.60;;;1.40;;
71606;SDS011;60641;53.556;9.914;2024-02-16T11:24:53;5.50;;;1.40;;
71606;SDS011;60641;53.556;9.914;2024-02-16T11:27:21;5.80;;;1.40;;
71606;SDS011;60641;53.556;9.914;2024-02-16T11:30:06;4.90;;;1.50;;
71606;SDS011;60641;53.556;9.914;2024-02-16T11:32:38;6.30;;;1.60;;
71606;SDS011;60641;53.556;9.914;2024-02-16T11:35:08;7.20;;;2.30;;
71606;SDS011;60641;53.556;9.914;2024-02-16T11:37:34;5.30;;;1.40;;
71606;SDS011;60641;53.556;9.914;2024-02-16T11:40:01;4.80;;;1.50;;
71606;SDS011;60641;53.556;9.914;2024-02-16T11:42:27;6.40;;;1.40;;
71606;SDS011;60641;53.556;9.914;2024-02-16T11:44:54;6.80;;;1.70;;
71606;SDS011;60641;53.556;9.914;2024-02-16T11:47:21;5.50;;;1.70;;
71606;SDS011;60641;53.556;9.914;2024-02-16T11:50:01;5.80;;;1.40;;
71606;SDS011;60641;53.556;9.914;2024-02-16T11:52:28;6.80;;;1.50;;
71606;SDS011;60641;53.556;9.914;2024-02-16T11:54:55;7.00;;;1.90;;
71606;SDS011;60641;53.556;9.914;2024-02-16T11:57:22;6.70;;;2.20;;
71606;SDS011;60641;53.556;9.914;2024-02-16T11:59:49;6.20;;;1.70;;
71606;SDS011;60641;53.556;9.914;2024-02-16T12:02:19;7.40;;;1.60;;
71606;SDS011;60641;53.556;9.914;2024-02-16T12:04:47;5.40;;;1.60;;
71606;SDS011;60641;53.556;9.914;2024-02-16T12:07:13;7.30;;;1.90;;
71606;SDS011;60641;53.556;9.914;2024-02-16T12:09:40;7.70;;;1.80;;
71606;SDS011;60641;53.556;9.914;2024-02-16T12:12:07;8.60;;;2.00;;
71606;SDS011;60641;53.556;9.914;2024-02-16T12:14:34;6.70;;;1.90;;
71606;SDS011;60641;53.556;9.914;2024-02-16T12:17:01;7.30;;;2.10;;
71606;SDS011;60641;53.556;9.914;2024-02-16T12:19:27;6.90;;;2.10;;
71606;SDS011;60641;53.556;9.914;2024-02-16T12:21:55;6.40;;;2.20;;
71606;SDS011;60641;53.556;9.914;2024-02-16T12:24:23;6.80;;;2.20;;
71606;SDS011;60641;53.556;9.914;2024-02-16T12:26:50;8.20;;;1.90;;
71606;SDS011;60641;53.556;9.914;2024-02-16T12:29:17;7.10;;;1.60;;
71606;SDS011;60641;53.556;9.914;2024-02-16T12:31:44;6.00;;;2.10;;
71606;SDS011;60641;53.556;9.914;2024-02-16T12:34:11;8.90;;;2.20;;
71606;SDS011;60641;53.556;9.914;2024-02-16T12:36:38;6.30;;;1.90;;
71606;SDS011;60641;53.556;9.914;2024-02-16T12:39:06;8.30;;;2.00;;
71606;SDS011;60641;53.556;9.914;2024-02-16T12:41:35;8.50;;;2.50;;
71606;SDS011;60641;53.556;9.914;2024-02-16T12:44:02;8.10;;;1.80;;
71606;SDS011;60641;53.556;9.914;2024-02-16T12:46:28;6.80;;;2.00;;
71606;SDS011;60641;53.556;9.914;2024-02-16T12:48:55;6.50;;;2.20;;
71606;SDS011;60641;53.556;9.914;2024-02-16T12:51:21;7.70;;;2.40;;
71606;SDS011;60641;53.556;9.914;2024-02-16T12:53:48;7.60;;;2.80;;
71606;SDS011;60641;53.556;9.914;2024-02-16T12:56:15;6.10;;;2.20;;
71606;SDS011;60641;53.556;9.914;2024-02-16T12:58:42;7.50;;;2.00;;
71606;SDS011;60641;53.556;9.914;2024-02-16T13:01:08;6.40;;;2.10;;
71606;SDS011;60641;53.556;9.914;2024-02-16T13:03:35;6.50;;;2.30;;
71606;SDS011;60641;53.556;9.914;2024-02-16T13:06:02;8.50;;;2.60;;
71606;SDS011;60641;53.556;9.914;2024-02-16T13:08:29;8.60;;;2.50;;
71606;SDS011;60641;53.556;9.914;2024-02-16T13:10:56;8.10;;;2.10;;
71606;SDS011;60641;53.556;9.914;2024-02-16T13:13:24;7.20;;;2.20;;
71606;SDS011;60641;53.556;9.914;2024-02-16T13:15:50;9.00;;;2.70;;
71606;SDS011;60641;53.556;9.914;2024-02-16T13:18:17;7.50;;;2.40;;
71606;SDS011;60641;53.556;9.914;2024-02-16T13:20:43;7.10;;;2.40;;
71606;SDS011;60641;53.556;9.914;2024-02-16T13:23:10;7.30;;;2.40;;
71606;SDS011;60641;53.556;9.914;2024-02-16T13:25:36;7.70;;;2.50;;
71606;SDS011;60641;53.556;9.914;2024-02-16T13:28:03;7.80;;;2.70;;
71606;SDS011;60641;53.556;9.914;2024-02-16T13:30:29;9.20;;;2.40;;
71606;SDS011;60641;53.556;9.914;2024-02-16T13:32:56;8.80;;;2.60;;
71606;SDS011;60641;53.556;9.914;2024-02-16T13:35:23;9.00;;;2.70;;
71606;SDS011;60641;53.556;9.914;2024-02-16T13:37:50;7.10;;;2.60;;
71606;SDS011;60641;53.556;9.914;2024-02-16T13:40:16;7.50;;;2.50;;
71606;SDS011;60641;53.556;9.914;2024-02-16T13:42:43;7.50;;;2.30;;
71606;SDS011;60641;53.556;9.914;2024-02-16T13:45:11;8.20;;;2.70;;
71606;SDS011;60641;53.556;9.914;2024-02-16T13:47:38;10.10;;;2.60;;
71606;SDS011;60641;53.556;9.914;2024-02-16T13:50:07;9.20;;;2.60;;
71606;SDS011;60641;53.556;9.914;2024-02-16T13:52:34;8.80;;;2.50;;
71606;SDS011;60641;53.556;9.914;2024-02-16T13:55:01;9.90;;;2.90;;
71606;SDS011;60641;53.556;9.914;2024-02-16T13:57:27;10.90;;;2.50;;
71606;SDS011;60641;53.556;9.914;2024-02-16T13:59:54;10.70;;;2.80;;
71606;SDS011;60641;53.556;9.914;2024-02-16T14:02:20;7.70;;;2.60;;
71606;SDS011;60641;53.556;9.914;2024-02-16T14:04:47;8.10;;;2.50;;
71606;SDS011;60641;53.556;9.914;2024-02-16T14:07:15;7.20;;;2.80;;
71606;SDS011;60641;53.556;9.914;2024-02-16T14:09:42;10.00;;;2.70;;
71606;SDS011;60641;53.556;9.914;2024-02-16T14:12:08;7.00;;;2.50;;
71606;SDS011;60641;53.556;9.914;2024-02-16T14:14:35;9.10;;;3.50;;
71606;SDS011;60641;53.556;9.914;2024-02-16T14:17:01;9.80;;;3.10;;
71606;SDS011;60641;53.556;9.914;2024-02-16T14:19:28;9.20;;;3.80;;
71606;SDS011;60641;53.556;9.914;2024-02-16T14:21:55;10.80;;;3.20;;
71606;SDS011;60641;53.556;9.914;2024-02-16T14:24:22;6.70;;;2.70;;
71606;SDS011;60641;53.556;9.914;2024-02-16T14:26:49;7.40;;;2.80;;
71606;SDS011;60641;53.556;9.914;2024-02-16T14:29:15;9.50;;;2.60;;
71606;SDS011;60641;53.556;9.914;2024-02-16T14:31:41;9.10;;;2.80;;
71606;SDS011;60641;53.556;9.914;2024-02-16T14:34:08;9.70;;;3.10;;
71606;SDS011;60641;53.556;9.914;2024-02-16T14:36:35;9.70;;;3.00;;
71606;SDS011;60641;53.556;9.914;2024-02-16T14:39:01;10.70;;;2.80;;
71606;SDS011;60641;53.556;9.914;2024-02-16T14:41:28;9.20;;;3.20;;
71606;SDS011;60641;53.556;9.914;2024-02-16T14:43:55;8.10;;;3.20;;
71606;SDS011;60641;53.556;9.914;2024-02-16T14:46:26;10.00;;;3.50;;
71606;SDS011;60641;53.556;9.914;2024-02-16T14:48:53;11.00;;;4.10;;
71606;SDS011;60641;53.556;9.914;2024-02-16T14:51:20;10.50;;;3.30;;